KAAF/AAF METAR and TAF weather

Enter ICAO airport designator
Station Type Date Time Source
KAAF METAR 2022/06/17 20:53 UTC NOAA

KAAF 172053Z AUTO 21008KT 10SM CLR 31/27 A2998 RMK AO2 SLP152 T03060267 58024


Station Type Date Time Source
KAAF Decoded METAR 2022/06/17 20:53 UTC NOAA

APALACHICOLA MUNICIPAL AIRPORT, FL, United States (KAAF) 29-44N 085-01W 5M
Jun 17, 2022 - 04:53 PM EDT / 2022.06.17 2053 UTC
Wind: from the SSW (210 degrees) at 9 MPH (8 KT):0
Visibility: 10 mile(s):0
Sky conditions: clear
Temperature: 87.1 F (30.6 C)
Heat index: 102.7 F (39.3 C):1
Dew Point: 80.1 F (26.7 C)
Relative Humidity: 79%
Pressure (altimeter): 29.98 in. Hg (1015 hPa)
Pressure tendency: 0.07 inches (2.4 hPa) lower than three hours ago
ob: KAAF 172053Z AUTO 21008KT 10SM CLR 31/27 A2998 RMK AO2 SLP152 T03060267 58024
cycle: 21

Station Type Date Time Source
KAAF TAF UTC NOAA

Error!

Example: see airport list